sensor_id;sensor_type;location;lat;lon;timestamp;temperature;humidity
25640;DHT22;13497;48.322;16.204;2023-08-17T00:01:49;18.30;99.90
25640;DHT22;13497;48.322;16.204;2023-08-17T00:04:17;18.20;99.90
25640;DHT22;13497;48.322;16.204;2023-08-17T00:06:43;18.20;99.90
25640;DHT22;13497;48.322;16.204;2023-08-17T00:09:09;18.20;99.90
25640;DHT22;13497;48.322;16.204;2023-08-17T00:11:38;18.20;99.90
25640;DHT22;13497;48.322;16.204;2023-08-17T00:14:04;18.10;99.90
25640;DHT22;13497;48.322;16.204;2023-08-17T00:16:29;18.20;99.90
25640;DHT22;13497;48.322;16.204;2023-08-17T00:18:55;18.10;99.90
25640;DHT22;13497;48.322;16.204;2023-08-17T00:21:20;18.10;99.90
25640;DHT22;13497;48.322;16.204;2023-08-17T00:23:46;18.10;99.90
25640;DHT22;13497;48.322;16.204;2023-08-17T00:26:11;18.20;99.90
25640;DHT22;13497;48.322;16.204;2023-08-17T00:28:37;18.20;99.90
25640;DHT22;13497;48.322;16.204;2023-08-17T00:31:03;18.20;99.90
25640;DHT22;13497;48.322;16.204;2023-08-17T00:33:29;18.20;99.90
25640;DHT22;13497;48.322;16.204;2023-08-17T00:35:54;18.20;99.90
25640;DHT22;13497;48.322;16.204;2023-08-17T00:38:20;18.20;99.90
25640;DHT22;13497;48.322;16.204;2023-08-17T00:40:46;18.10;99.90
25640;DHT22;13497;48.322;16.204;2023-08-17T00:43:11;18.20;99.90
25640;DHT22;13497;48.322;16.204;2023-08-17T00:45:37;18.10;99.90
25640;DHT22;13497;48.322;16.204;2023-08-17T00:48:02;18.10;99.90
25640;DHT22;13497;48.322;16.204;2023-08-17T00:50:30;18.10;99.90
25640;DHT22;13497;48.322;16.204;2023-08-17T00:52:56;18.10;99.90
25640;DHT22;13497;48.322;16.204;2023-08-17T00:55:22;18.10;99.90
25640;DHT22;13497;48.322;16.204;2023-08-17T00:57:48;18.10;99.90
25640;DHT22;13497;48.322;16.204;2023-08-17T01:00:13;18.10;99.90
25640;DHT22;13497;48.322;16.204;2023-08-17T01:02:40;18.00;99.90
25640;DHT22;13497;48.322;16.204;2023-08-17T01:05:06;18.00;99.90
25640;DHT22;13497;48.322;16.204;2023-08-17T01:07:32;17.90;99.90
25640;DHT22;13497;48.322;16.204;2023-08-17T01:09:57;17.90;99.90
25640;DHT22;13497;48.322;16.204;2023-08-17T01:12:30;17.80;99.90
25640;DHT22;13497;48.322;16.204;2023-08-17T01:15:15;17.80;99.90
25640;DHT22;13497;48.322;16.204;2023-08-17T01:20:10;17.90;99.90
25640;DHT22;13497;48.322;16.204;2023-08-17T01:22:37;17.90;99.90
25640;DHT22;13497;48.322;16.204;2023-08-17T01:25:05;17.90;99.90
25640;DHT22;13497;48.322;16.204;2023-08-17T01:27:36;17.80;99.90
25640;DHT22;13497;48.322;16.204;2023-08-17T01:30:02;17.70;99.90
25640;DHT22;13497;48.322;16.204;2023-08-17T01:32:32;17.70;99.90
25640;DHT22;13497;48.322;16.204;2023-08-17T01:35:04;17.80;99.90
25640;DHT22;13497;48.322;16.204;2023-08-17T01:37:34;17.80;99.90
25640;DHT22;13497;48.322;16.204;2023-08-17T01:39:59;17.90;99.90
25640;DHT22;13497;48.322;16.204;2023-08-17T01:42:25;18.00;99.90
25640;DHT22;13497;48.322;16.204;2023-08-17T01:44:51;18.10;99.90
25640;DHT22;13497;48.322;16.204;2023-08-17T01:47:20;18.20;99.90
25640;DHT22;13497;48.322;16.204;2023-08-17T01:49:45;18.20;99.90
25640;DHT22;13497;48.322;16.204;2023-08-17T01:52:11;18.10;99.90
25640;DHT22;13497;48.322;16.204;2023-08-17T01:54:36;18.20;99.90
25640;DHT22;13497;48.322;16.204;2023-08-17T01:57:02;18.10;99.90
25640;DHT22;13497;48.322;16.204;2023-08-17T01:59:27;18.20;99.90
25640;DHT22;13497;48.322;16.204;2023-08-17T02:01:53;18.20;99.90
25640;DHT22;13497;48.322;16.204;2023-08-17T02:04:18;18.10;99.90
25640;DHT22;13497;48.322;16.204;2023-08-17T02:06:44;18.10;99.90
25640;DHT22;13497;48.322;16.204;2023-08-17T02:09:09;18.10;99.90
25640;DHT22;13497;48.322;16.204;2023-08-17T02:11:35;18.10;99.90
25640;DHT22;13497;48.322;16.204;2023-08-17T02:14:00;18.00;99.90
25640;DHT22;13497;48.322;16.204;2023-08-17T02:16:26;18.00;99.90
25640;DHT22;13497;48.322;16.204;2023-08-17T02:18:51;18.00;99.90
25640;DHT22;13497;48.322;16.204;2023-08-17T02:21:17;18.00;99.90
25640;DHT22;13497;48.322;16.204;2023-08-17T02:23:42;18.00;99.90
25640;DHT22;13497;48.322;16.204;2023-08-17T02:26:08;17.90;99.90
25640;DHT22;13497;48.322;16.204;2023-08-17T02:28:33;17.90;99.90
25640;DHT22;13497;48.322;16.204;2023-08-17T02:30:59;17.90;99.90
25640;DHT22;13497;48.322;16.204;2023-08-17T02:33:24;18.00;99.90
25640;DHT22;13497;48.322;16.204;2023-08-17T02:35:50;18.00;99.90
25640;DHT22;13497;48.322;16.204;2023-08-17T02:38:16;18.00;99.90
25640;DHT22;13497;48.322;16.204;2023-08-17T02:40:41;18.00;99.90
25640;DHT22;13497;48.322;16.204;2023-08-17T02:43:07;18.10;99.90
25640;DHT22;13497;48.322;16.204;2023-08-17T02:45:33;18.10;99.90
25640;DHT22;13497;48.322;16.204;2023-08-17T02:47:58;18.00;99.90
25640;DHT22;13497;48.322;16.204;2023-08-17T02:50:24;18.00;99.90
25640;DHT22;13497;48.322;16.204;2023-08-17T02:52:49;18.00;99.90
25640;DHT22;13497;48.322;16.204;2023-08-17T02:55:15;18.10;99.90
25640;DHT22;13497;48.322;16.204;2023-08-17T02:57:40;18.10;99.90
25640;DHT22;13497;48.322;16.204;2023-08-17T03:00:06;18.10;99.90
25640;DHT22;13497;48.322;16.204;2023-08-17T03:02:32;18.10;99.90
25640;DHT22;13497;48.322;16.204;2023-08-17T03:04:57;18.10;99.90
25640;DHT22;13497;48.322;16.204;2023-08-17T03:07:23;18.10;99.90
25640;DHT22;13497;48.322;16.204;2023-08-17T03:09:48;18.10;99.90
25640;DHT22;13497;48.322;16.204;2023-08-17T03:12:14;18.20;99.90
25640;DHT22;13497;48.322;16.204;2023-08-17T03:14:39;18.20;99.90
25640;DHT22;13497;48.322;16.204;2023-08-17T03:17:05;18.20;99.90
25640;DHT22;13497;48.322;16.204;2023-08-17T03:19:30;18.20;99.90
25640;DHT22;13497;48.322;16.204;2023-08-17T03:21:56;18.10;99.90
25640;DHT22;13497;48.322;16.204;2023-08-17T03:24:21;18.00;99.90
25640;DHT22;13497;48.322;16.204;2023-08-17T03:26:47;18.10;99.90
25640;DHT22;13497;48.322;16.204;2023-08-17T03:29:13;18.10;99.90
25640;DHT22;13497;48.322;16.204;2023-08-17T03:31:38;18.20;99.90
25640;DHT22;13497;48.322;16.204;2023-08-17T03:34:04;18.30;99.90
25640;DHT22;13497;48.322;16.204;2023-08-17T03:36:29;18.40;99.90
25640;DHT22;13497;48.322;16.204;2023-08-17T03:38:55;18.30;99.90
25640;DHT22;13497;48.322;16.204;2023-08-17T03:41:21;18.30;99.90
25640;DHT22;13497;48.322;16.204;2023-08-17T03:43:48;18.30;99.90
25640;DHT22;13497;48.322;16.204;2023-08-17T03:46:14;18.20;99.90
25640;DHT22;13497;48.322;16.204;2023-08-17T03:48:39;18.10;99.90
25640;DHT22;13497;48.322;16.204;2023-08-17T03:51:05;18.10;99.90
25640;DHT22;13497;48.322;16.204;2023-08-17T03:53:30;18.00;99.90
25640;DHT22;13497;48.322;16.204;2023-08-17T03:55:56;18.00;99.90
25640;DHT22;13497;48.322;16.204;2023-08-17T03:58:22;18.00;99.90
25640;DHT22;13497;48.322;16.204;2023-08-17T04:00:50;18.00;99.90
25640;DHT22;13497;48.322;16.204;2023-08-17T04:03:16;18.10;99.90
25640;DHT22;13497;48.322;16.204;2023-08-17T04:05:42;18.00;99.90
25640;DHT22;13497;48.322;16.204;2023-08-17T04:08:08;18.10;99.90
25640;DHT22;13497;48.322;16.204;2023-08-17T04:10:33;18.10;99.90
25640;DHT22;13497;48.322;16.204;2023-08-17T04:12:59;18.00;99.90
25640;DHT22;13497;48.322;16.204;2023-08-17T04:15:24;18.10;99.90
25640;DHT22;13497;48.322;16.204;2023-08-17T04:17:50;18.00;99.90
25640;DHT22;13497;48.322;16.204;2023-08-17T04:20:15;17.90;99.90
25640;DHT22;13497;48.322;16.204;2023-08-17T04:22:41;17.90;99.90
25640;DHT22;13497;48.322;16.204;2023-08-17T04:25:07;17.90;99.90
25640;DHT22;13497;48.322;16.204;2023-08-17T04:27:33;18.00;99.90
25640;DHT22;13497;48.322;16.204;2023-08-17T04:29:58;18.10;99.90
25640;DHT22;13497;48.322;16.204;2023-08-17T04:32:24;18.10;99.90
25640;DHT22;13497;48.322;16.204;2023-08-17T04:34:49;18.20;99.90
25640;DHT22;13497;48.322;16.204;2023-08-17T04:37:15;18.40;99.90
25640;DHT22;13497;48.322;16.204;2023-08-17T04:39:40;18.70;99.90
25640;DHT22;13497;48.322;16.204;2023-08-17T04:42:06;19.20;99.90
25640;DHT22;13497;48.322;16.204;2023-08-17T04:44:32;19.60;99.90
25640;DHT22;13497;48.322;16.204;2023-08-17T04:46:57;20.00;99.90
25640;DHT22;13497;48.322;16.204;2023-08-17T04:49:23;20.50;99.90
25640;DHT22;13497;48.322;16.204;2023-08-17T04:51:48;20.90;99.90
25640;DHT22;13497;48.322;16.204;2023-08-17T04:54:14;21.50;99.90
25640;DHT22;13497;48.322;16.204;2023-08-17T04:56:39;22.00;99.90
25640;DHT22;13497;48.322;16.204;2023-08-17T04:59:05;22.30;99.90
25640;DHT22;13497;48.322;16.204;2023-08-17T05:01:31;22.30;99.90
25640;DHT22;13497;48.322;16.204;2023-08-17T05:03:57;22.30;99.90
25640;DHT22;13497;48.322;16.204;2023-08-17T05:06:22;22.40;99.90
25640;DHT22;13497;48.322;16.204;2023-08-17T05:08:48;22.40;99.90
25640;DHT22;13497;48.322;16.204;2023-08-17T05:11:14;22.60;99.90
25640;DHT22;13497;48.322;16.204;2023-08-17T05:13:39;23.00;99.90
25640;DHT22;13497;48.322;16.204;2023-08-17T05:16:05;23.30;99.90
25640;DHT22;13497;48.322;16.204;2023-08-17T05:18:30;23.50;99.90
25640;DHT22;13497;48.322;16.204;2023-08-17T05:20:56;23.80;99.90
25640;DHT22;13497;48.322;16.204;2023-08-17T05:23:21;23.90;99.90
25640;DHT22;13497;48.322;16.204;2023-08-17T05:25:47;24.10;99.90
25640;DHT22;13497;48.322;16.204;2023-08-17T05:28:13;24.20;99.90
25640;DHT22;13497;48.322;16.204;2023-08-17T05:30:39;24.60;99.90
25640;DHT22;13497;48.322;16.204;2023-08-17T05:33:04;24.70;99.90
25640;DHT22;13497;48.322;16.204;2023-08-17T05:35:30;25.00;99.90
25640;DHT22;13497;48.322;16.204;2023-08-17T05:37:55;25.30;99.90
25640;DHT22;13497;48.322;16.204;2023-08-17T05:40:21;25.20;99.90
25640;DHT22;13497;48.322;16.204;2023-08-17T05:42:46;25.40;99.90
25640;DHT22;13497;48.322;16.204;2023-08-17T05:45:12;25.20;99.90
25640;DHT22;13497;48.322;16.204;2023-08-17T05:47:37;25.60;99.90
25640;DHT22;13497;48.322;16.204;2023-08-17T05:50:03;26.20;99.90
25640;DHT22;13497;48.322;16.204;2023-08-17T05:52:28;26.30;99.90
25640;DHT22;13497;48.322;16.204;2023-08-17T05:54:54;26.90;99.90
25640;DHT22;13497;48.322;16.204;2023-08-17T05:57:20;27.10;99.90
25640;DHT22;13497;48.322;16.204;2023-08-17T05:59:45;27.50;99.90
25640;DHT22;13497;48.322;16.204;2023-08-17T06:02:11;27.30;99.90
25640;DHT22;13497;48.322;16.204;2023-08-17T06:04:36;27.60;99.90
25640;DHT22;13497;48.322;16.204;2023-08-17T06:07:02;27.70;99.80
25640;DHT22;13497;48.322;16.204;2023-08-17T06:09:27;27.60;99.90
25640;DHT22;13497;48.322;16.204;2023-08-17T06:11:53;27.40;99.90
25640;DHT22;13497;48.322;16.204;2023-08-17T06:14:18;27.30;99.90
25640;DHT22;13497;48.322;16.204;2023-08-17T06:16:44;27.10;99.90
25640;DHT22;13497;48.322;16.204;2023-08-17T06:19:09;27.20;99.90
25640;DHT22;13497;48.322;16.204;2023-08-17T06:21:35;27.10;99.90
25640;DHT22;13497;48.322;16.204;2023-08-17T06:24:00;27.10;99.90
25640;DHT22;13497;48.322;16.204;2023-08-17T06:26:26;27.20;99.90
25640;DHT22;13497;48.322;16.204;2023-08-17T06:28:51;26.50;99.90
25640;DHT22;13497;48.322;16.204;2023-08-17T06:31:17;25.90;99.90
25640;DHT22;13497;48.322;16.204;2023-08-17T06:33:42;25.20;99.90
25640;DHT22;13497;48.322;16.204;2023-08-17T06:36:08;24.70;99.90
25640;DHT22;13497;48.322;16.204;2023-08-17T06:38:33;24.30;99.90
25640;DHT22;13497;48.322;16.204;2023-08-17T06:40:59;24.10;99.90
25640;DHT22;13497;48.322;16.204;2023-08-17T06:43:24;24.10;99.90
25640;DHT22;13497;48.322;16.204;2023-08-17T06:45:50;24.10;99.90
25640;DHT22;13497;48.322;16.204;2023-08-17T06:48:15;24.10;99.90
25640;DHT22;13497;48.322;16.204;2023-08-17T06:50:41;24.00;99.90
25640;DHT22;13497;48.322;16.204;2023-08-17T06:53:07;24.10;99.90
25640;DHT22;13497;48.322;16.204;2023-08-17T06:55:32;24.10;99.90
25640;DHT22;13497;48.322;16.204;2023-08-17T06:57:58;24.10;99.90
25640;DHT22;13497;48.322;16.204;2023-08-17T07:00:23;23.90;99.90
25640;DHT22;13497;48.322;16.204;2023-08-17T07:02:49;23.60;99.90
25640;DHT22;13497;48.322;16.204;2023-08-17T07:05:15;23.40;99.90
25640;DHT22;13497;48.322;16.204;2023-08-17T07:07:41;23.20;99.90
25640;DHT22;13497;48.322;16.204;2023-08-17T07:10:07;23.20;99.90
25640;DHT22;13497;48.322;16.204;2023-08-17T07:12:33;23.30;99.90
25640;DHT22;13497;48.322;16.204;2023-08-17T07:14:58;23.30;99.90
25640;DHT22;13497;48.322;16.204;2023-08-17T07:17:24;23.20;99.90
25640;DHT22;13497;48.322;16.204;2023-08-17T07:19:50;23.20;99.90
25640;DHT22;13497;48.322;16.204;2023-08-17T07:22:15;23.30;99.90
25640;DHT22;13497;48.322;16.204;2023-08-17T07:24:42;23.30;99.90
25640;DHT22;13497;48.322;16.204;2023-08-17T07:27:07;23.30;99.90
25640;DHT22;13497;48.322;16.204;2023-08-17T07:29:33;23.30;99.90
25640;DHT22;13497;48.322;16.204;2023-08-17T07:31:58;23.30;99.90
25640;DHT22;13497;48.322;16.204;2023-08-17T07:34:27;23.40;99.90
25640;DHT22;13497;48.322;16.204;2023-08-17T07:36:53;23.40;99.90
25640;DHT22;13497;48.322;16.204;2023-08-17T07:39:18;23.20;99.90
25640;DHT22;13497;48.322;16.204;2023-08-17T07:41:44;23.30;99.90
25640;DHT22;13497;48.322;16.204;2023-08-17T07:44:09;23.40;99.90
25640;DHT22;13497;48.322;16.204;2023-08-17T07:46:35;23.60;99.90
25640;DHT22;13497;48.322;16.204;2023-08-17T07:49:00;23.70;99.90
25640;DHT22;13497;48.322;16.204;2023-08-17T07:51:26;23.80;99.90
25640;DHT22;13497;48.322;16.204;2023-08-17T07:53:51;23.80;99.90
25640;DHT22;13497;48.322;16.204;2023-08-17T07:56:17;23.90;99.90
25640;DHT22;13497;48.322;16.204;2023-08-17T07:58:42;24.10;99.90
25640;DHT22;13497;48.322;16.204;2023-08-17T08:01:08;24.20;99.90
25640;DHT22;13497;48.322;16.204;2023-08-17T08:03:33;24.10;99.90
25640;DHT22;13497;48.322;16.204;2023-08-17T08:05:59;24.10;99.90
25640;DHT22;13497;48.322;16.204;2023-08-17T08:08:24;23.80;99.90
25640;DHT22;13497;48.322;16.204;2023-08-17T08:10:52;23.90;99.90
25640;DHT22;13497;48.322;16.204;2023-08-17T08:13:18;24.10;99.90
25640;DHT22;13497;48.322;16.204;2023-08-17T08:15:43;24.10;99.90
25640;DHT22;13497;48.322;16.204;2023-08-17T08:18:08;24.30;99.90
25640;DHT22;13497;48.322;16.204;2023-08-17T08:20:34;24.40;99.90
25640;DHT22;13497;48.322;16.204;2023-08-17T08:23:00;24.30;99.90
25640;DHT22;13497;48.322;16.204;2023-08-17T08:25:25;24.20;99.90
25640;DHT22;13497;48.322;16.204;2023-08-17T08:27:51;24.30;99.90
25640;DHT22;13497;48.322;16.204;2023-08-17T08:30:16;24.60;99.90
25640;DHT22;13497;48.322;16.204;2023-08-17T08:32:43;25.00;99.90
25640;DHT22;13497;48.322;16.204;2023-08-17T08:35:09;25.20;99.90
25640;DHT22;13497;48.322;16.204;2023-08-17T08:37:34;25.40;99.90
25640;DHT22;13497;48.322;16.204;2023-08-17T08:40:00;25.50;99.90
25640;DHT22;13497;48.322;16.204;2023-08-17T08:42:25;25.60;99.90
25640;DHT22;13497;48.322;16.204;2023-08-17T08:44:51;25.70;99.90
25640;DHT22;13497;48.322;16.204;2023-08-17T08:47:17;25.70;99.90
25640;DHT22;13497;48.322;16.204;2023-08-17T08:50:01;25.70;99.90
25640;DHT22;13497;48.322;16.204;2023-08-17T08:52:48;25.60;99.90
25640;DHT22;13497;48.322;16.204;2023-08-17T08:55:16;25.70;99.90
25640;DHT22;13497;48.322;16.204;2023-08-17T08:57:43;25.70;99.90
25640;DHT22;13497;48.322;16.204;2023-08-17T09:00:08;25.60;99.90
25640;DHT22;13497;48.322;16.204;2023-08-17T09:02:34;25.60;99.90
25640;DHT22;13497;48.322;16.204;2023-08-17T09:05:00;25.70;99.90
25640;DHT22;13497;48.322;16.204;2023-08-17T09:07:27;25.60;99.90
25640;DHT22;13497;48.322;16.204;2023-08-17T09:09:54;25.40;99.90
25640;DHT22;13497;48.322;16.204;2023-08-17T09:12:20;25.20;99.90
25640;DHT22;13497;48.322;16.204;2023-08-17T09:14:46;25.20;99.90
25640;DHT22;13497;48.322;16.204;2023-08-17T09:17:12;25.40;99.90
25640;DHT22;13497;48.322;16.204;2023-08-17T09:19:37;25.20;99.90
25640;DHT22;13497;48.322;16.204;2023-08-17T09:22:03;25.40;99.90
25640;DHT22;13497;48.322;16.204;2023-08-17T09:24:35;25.70;99.90
25640;DHT22;13497;48.322;16.204;2023-08-17T09:27:01;26.00;99.90
25640;DHT22;13497;48.322;16.204;2023-08-17T09:29:27;26.00;99.90
25640;DHT22;13497;48.322;16.204;2023-08-17T09:31:52;26.20;99.90
25640;DHT22;13497;48.322;16.204;2023-08-17T09:34:18;26.50;99.90
25640;DHT22;13497;48.322;16.204;2023-08-17T09:36:47;26.60;99.90
25640;DHT22;13497;48.322;16.204;2023-08-17T09:39:13;26.30;99.90
25640;DHT22;13497;48.322;16.204;2023-08-17T09:41:40;26.30;99.90
25640;DHT22;13497;48.322;16.204;2023-08-17T09:44:06;26.60;99.90
25640;DHT22;13497;48.322;16.204;2023-08-17T09:46:32;26.40;99.90
25640;DHT22;13497;48.322;16.204;2023-08-17T09:48:57;26.10;99.90
25640;DHT22;13497;48.322;16.204;2023-08-17T09:51:23;26.20;99.90
25640;DHT22;13497;48.322;16.204;2023-08-17T09:53:52;26.40;99.90
25640;DHT22;13497;48.322;16.204;2023-08-17T09:56:23;26.30;99.90
25640;DHT22;13497;48.322;16.204;2023-08-17T09:58:49;26.40;99.90
25640;DHT22;13497;48.322;16.204;2023-08-17T10:01:14;26.50;99.90
25640;DHT22;13497;48.322;16.204;2023-08-17T10:03:43;26.50;99.90
25640;DHT22;13497;48.322;16.204;2023-08-17T10:06:12;26.20;99.90
25640;DHT22;13497;48.322;16.204;2023-08-17T10:08:42;26.20;99.90
25640;DHT22;13497;48.322;16.204;2023-08-17T10:11:08;26.30;99.90
25640;DHT22;13497;48.322;16.204;2023-08-17T10:21:01;26.90;99.90
25640;DHT22;13497;48.322;16.204;2023-08-17T10:23:27;27.10;99.90
25640;DHT22;13497;48.322;16.204;2023-08-17T10:25:53;27.20;99.90
25640;DHT22;13497;48.322;16.204;2023-08-17T10:28:19;27.00;99.90
25640;DHT22;13497;48.322;16.204;2023-08-17T10:30:45;27.10;99.90
25640;DHT22;13497;48.322;16.204;2023-08-17T10:33:11;27.00;99.90
25640;DHT22;13497;48.322;16.204;2023-08-17T10:35:37;27.10;99.90
25640;DHT22;13497;48.322;16.204;2023-08-17T10:38:03;27.10;99.90
25640;DHT22;13497;48.322;16.204;2023-08-17T10:40:36;27.30;99.80
25640;DHT22;13497;48.322;16.204;2023-08-17T10:43:02;27.40;99.90
25640;DHT22;13497;48.322;16.204;2023-08-17T10:45:29;27.60;99.90
25640;DHT22;13497;48.322;16.204;2023-08-17T10:50:32;27.60;99.20
25640;DHT22;13497;48.322;16.204;2023-08-17T10:53:03;27.70;99.90
25640;DHT22;13497;48.322;16.204;2023-08-17T10:55:36;27.90;99.90
25640;DHT22;13497;48.322;16.204;2023-08-17T10:58:02;28.00;99.50
25640;DHT22;13497;48.322;16.204;2023-08-17T11:00:31;27.90;99.10
25640;DHT22;13497;48.322;16.204;2023-08-17T11:03:00;27.90;99.30
25640;DHT22;13497;48.322;16.204;2023-08-17T11:05:44;28.10;99.50
25640;DHT22;13497;48.322;16.204;2023-08-17T11:08:19;28.30;98.30
25640;DHT22;13497;48.322;16.204;2023-08-17T11:10:48;28.40;97.90
25640;DHT22;13497;48.322;16.204;2023-08-17T11:13:21;28.20;97.80
25640;DHT22;13497;48.322;16.204;2023-08-17T11:15:47;27.90;97.60
25640;DHT22;13497;48.322;16.204;2023-08-17T11:18:13;28.00;97.70
25640;DHT22;13497;48.322;16.204;2023-08-17T11:20:40;27.90;97.60
25640;DHT22;13497;48.322;16.204;2023-08-17T11:23:06;28.10;97.70
25640;DHT22;13497;48.322;16.204;2023-08-17T11:25:32;28.20;97.30
25640;DHT22;13497;48.322;16.204;2023-08-17T11:28:02;28.30;96.60
25640;DHT22;13497;48.322;16.204;2023-08-17T11:30:28;28.20;96.70
25640;DHT22;13497;48.322;16.204;2023-08-17T11:32:55;28.10;96.80
25640;DHT22;13497;48.322;16.204;2023-08-17T11:35:21;28.10;96.80
25640;DHT22;13497;48.322;16.204;2023-08-17T11:37:47;28.50;96.50
25640;DHT22;13497;48.322;16.204;2023-08-17T11:40:14;28.80;96.10
25640;DHT22;13497;48.322;16.204;2023-08-17T11:42:39;29.00;94.80
25640;DHT22;13497;48.322;16.204;2023-08-17T11:45:05;29.00;94.20
25640;DHT22;13497;48.322;16.204;2023-08-17T11:47:38;28.60;94.10
25640;DHT22;13497;48.322;16.204;2023-08-17T11:50:03;28.60;94.40
25640;DHT22;13497;48.322;16.204;2023-08-17T11:52:30;28.80;94.90
25640;DHT22;13497;48.322;16.204;2023-08-17T11:54:58;29.10;94.40
25640;DHT22;13497;48.322;16.204;2023-08-17T11:57:23;29.10;93.90
25640;DHT22;13497;48.322;16.204;2023-08-17T11:59:52;28.80;93.40
25640;DHT22;13497;48.322;16.204;2023-08-17T12:02:17;28.50;93.40
25640;DHT22;13497;48.322;16.204;2023-08-17T12:04:43;28.10;93.70
25640;DHT22;13497;48.322;16.204;2023-08-17T12:07:09;27.80;94.30
25640;DHT22;13497;48.322;16.204;2023-08-17T12:09:34;27.70;94.50
25640;DHT22;13497;48.322;16.204;2023-08-17T12:12:00;27.70;94.70
25640;DHT22;13497;48.322;16.204;2023-08-17T12:14:27;27.60;95.00
25640;DHT22;13497;48.322;16.204;2023-08-17T12:16:53;27.70;95.10
25640;DHT22;13497;48.322;16.204;2023-08-17T12:19:19;28.00;95.10
25640;DHT22;13497;48.322;16.204;2023-08-17T12:21:47;28.20;95.10
25640;DHT22;13497;48.322;16.204;2023-08-17T12:24:13;28.40;94.70
25640;DHT22;13497;48.322;16.204;2023-08-17T12:26:46;28.80;94.40
25640;DHT22;13497;48.322;16.204;2023-08-17T12:29:12;29.00;94.10
25640;DHT22;13497;48.322;16.204;2023-08-17T12:31:38;28.90;94.40
25640;DHT22;13497;48.322;16.204;2023-08-17T12:34:03;29.30;94.60
25640;DHT22;13497;48.322;16.204;2023-08-17T12:36:34;29.60;93.90
25640;DHT22;13497;48.322;16.204;2023-08-17T12:39:00;29.60;93.40
25640;DHT22;13497;48.322;16.204;2023-08-17T12:41:29;29.60;93.30
25640;DHT22;13497;48.322;16.204;2023-08-17T12:43:54;29.50;93.60
25640;DHT22;13497;48.322;16.204;2023-08-17T12:46:20;29.50;93.60
25640;DHT22;13497;48.322;16.204;2023-08-17T12:48:46;29.70;93.50
25640;DHT22;13497;48.322;16.204;2023-08-17T12:51:11;29.50;93.90
25640;DHT22;13497;48.322;16.204;2023-08-17T12:53:37;29.40;93.50
25640;DHT22;13497;48.322;16.204;2023-08-17T12:56:02;29.40;93.70
25640;DHT22;13497;48.322;16.204;2023-08-17T12:58:28;29.60;93.70
25640;DHT22;13497;48.322;16.204;2023-08-17T13:00:53;30.10;93.40
25640;DHT22;13497;48.322;16.204;2023-08-17T13:03:20;30.30;92.40
25640;DHT22;13497;48.322;16.204;2023-08-17T13:05:45;30.30;92.90
25640;DHT22;13497;48.322;16.204;2023-08-17T13:08:11;30.40;92.40
25640;DHT22;13497;48.322;16.204;2023-08-17T13:10:36;30.50;92.30
25640;DHT22;13497;48.322;16.204;2023-08-17T13:13:02;30.60;92.00
25640;DHT22;13497;48.322;16.204;2023-08-17T13:15:28;30.80;91.70
25640;DHT22;13497;48.322;16.204;2023-08-17T13:17:54;30.70;91.30
25640;DHT22;13497;48.322;16.204;2023-08-17T13:20:20;30.70;91.60
25640;DHT22;13497;48.322;16.204;2023-08-17T13:22:46;30.20;92.20
25640;DHT22;13497;48.322;16.204;2023-08-17T13:25:11;29.90;91.60
25640;DHT22;13497;48.322;16.204;2023-08-17T13:27:37;29.90;92.10
25640;DHT22;13497;48.322;16.204;2023-08-17T13:30:03;30.10;92.20
25640;DHT22;13497;48.322;16.204;2023-08-17T13:32:28;30.30;91.50
25640;DHT22;13497;48.322;16.204;2023-08-17T13:34:54;30.00;91.30
25640;DHT22;13497;48.322;16.204;2023-08-17T13:37:19;29.90;92.10
25640;DHT22;13497;48.322;16.204;2023-08-17T13:39:45;30.00;91.90
25640;DHT22;13497;48.322;16.204;2023-08-17T13:42:11;29.70;91.80
25640;DHT22;13497;48.322;16.204;2023-08-17T13:44:36;29.70;92.10
25640;DHT22;13497;48.322;16.204;2023-08-17T13:47:02;29.80;91.40
25640;DHT22;13497;48.322;16.204;2023-08-17T13:49:27;29.70;91.60
25640;DHT22;13497;48.322;16.204;2023-08-17T13:51:53;29.90;91.40
25640;DHT22;13497;48.322;16.204;2023-08-17T13:54:19;30.20;91.30
25640;DHT22;13497;48.322;16.204;2023-08-17T13:56:44;30.20;91.50
25640;DHT22;13497;48.322;16.204;2023-08-17T13:59:10;30.20;91.60
25640;DHT22;13497;48.322;16.204;2023-08-17T14:01:35;30.20;91.60
25640;DHT22;13497;48.322;16.204;2023-08-17T14:04:01;30.20;91.70
25640;DHT22;13497;48.322;16.204;2023-08-17T14:06:29;29.90;91.90
25640;DHT22;13497;48.322;16.204;2023-08-17T14:08:54;29.90;92.30
25640;DHT22;13497;48.322;16.204;2023-08-17T14:11:20;29.90;92.10
25640;DHT22;13497;48.322;16.204;2023-08-17T14:13:45;29.70;92.10
25640;DHT22;13497;48.322;16.204;2023-08-17T14:16:11;29.50;92.20
25640;DHT22;13497;48.322;16.204;2023-08-17T14:18:37;29.70;92.20
25640;DHT22;13497;48.322;16.204;2023-08-17T14:21:02;30.10;92.40
25640;DHT22;13497;48.322;16.204;2023-08-17T14:23:28;30.00;92.30
25640;DHT22;13497;48.322;16.204;2023-08-17T14:25:54;29.80;92.40
25640;DHT22;13497;48.322;16.204;2023-08-17T14:28:19;29.80;92.90
25640;DHT22;13497;48.322;16.204;2023-08-17T14:30:45;29.80;92.80
25640;DHT22;13497;48.322;16.204;2023-08-17T14:33:11;29.80;92.40
25640;DHT22;13497;48.322;16.204;2023-08-17T14:35:39;29.80;92.70
25640;DHT22;13497;48.322;16.204;2023-08-17T14:38:05;29.70;92.00
25640;DHT22;13497;48.322;16.204;2023-08-17T14:40:30;29.50;92.20
25640;DHT22;13497;48.322;16.204;2023-08-17T14:42:56;29.50;92.50
25640;DHT22;13497;48.322;16.204;2023-08-17T14:45:22;29.40;93.10
25640;DHT22;13497;48.322;16.204;2023-08-17T14:47:47;29.40;92.80
25640;DHT22;13497;48.322;16.204;2023-08-17T14:50:13;29.10;92.50
25640;DHT22;13497;48.322;16.204;2023-08-17T14:52:39;29.00;92.90
25640;DHT22;13497;48.322;16.204;2023-08-17T14:55:05;29.00;92.90
25640;DHT22;13497;48.322;16.204;2023-08-17T14:57:30;28.90;93.10
25640;DHT22;13497;48.322;16.204;2023-08-17T14:59:56;28.80;93.10
25640;DHT22;13497;48.322;16.204;2023-08-17T15:02:21;28.70;93.30
25640;DHT22;13497;48.322;16.204;2023-08-17T15:04:47;28.70;93.70
25640;DHT22;13497;48.322;16.204;2023-08-17T15:07:13;28.60;93.20
25640;DHT22;13497;48.322;16.204;2023-08-17T15:09:38;28.60;93.20
25640;DHT22;13497;48.322;16.204;2023-08-17T15:12:04;28.70;92.70
25640;DHT22;13497;48.322;16.204;2023-08-17T15:14:30;28.80;92.70
25640;DHT22;13497;48.322;16.204;2023-08-17T15:16:55;28.80;93.10
25640;DHT22;13497;48.322;16.204;2023-08-17T15:19:21;29.00;93.20
25640;DHT22;13497;48.322;16.204;2023-08-17T15:21:46;29.00;93.00